Latest Weather Observations for Kowanyama

IDQ60801

Issued at 10:21 am EST Tuesday 19 February 2019 (issued every 10 minutes, with the page automatically refreshed every 10 minutes)

About weather observations | Map of weather stations | Latest weather observations for QLD | Other Formats
Station Details ID: 029038 Name: KOWANYAMA AIRPORT Lat: -15.48 Lon: 141.75 Height: 9.6 m
Data from the previous 72 hours. | See also: Recent months at Kowanyama
Date/Time
EST
Temp
°C
App
Temp
°C
Dew
Point
°C
Rel
Hum
%
Delta-T
°C
Wind Press
QNH
hPa
Press
MSL
hPa
Rain since
9am
mm
Dir  Spd
km/h
Gust
km/h
Spd
kts
Gust
kts
19/10:00am 30.1 35.2 25.6 77 3.2 NNW 9 13 5 7 1011.6 1011.5 0.0
19/09:30am 29.4 34.8 25.4 79 2.8 NNW 7 13 4 7 1011.5 1011.4 0.0
19/09:00am 28.5 33.3 24.5 79 2.8 N 7 11 4 6 1011.4 1011.3 18.0
19/08:30am 27.0 31.8 24.5 86 1.7 NNE 7 11 4 6 1011.2 1011.1 18.0
19/08:00am 25.8 30.7 24.6 93 0.8 NNE 7 11 4 6 1010.9 1010.8 18.0
19/07:30am 25.4 30.3 24.7 96 0.5 NNE 7 9 4 5 1010.6 1010.5 18.0
19/07:00am 25.0 29.9 24.3 96 0.5 NE 6 7 3 4 1010.5 1010.4 18.0
19/06:30am 25.0 29.9 24.3 96 0.5 N 6 9 3 5 1009.9 1009.8 17.8
19/06:00am 24.9 30.7 24.0 95 0.6 CALM 0 0 0 0 1009.7 1009.6 17.8
19/05:30am 24.8 30.6 23.9 95 0.6 CALM 0 4 0 2 1009.5 1009.4 17.8
19/05:00am 24.8 29.5 23.9 95 0.6 NNE 6 7 3 4 1009.4 1009.3 17.8
19/04:30am 24.8 29.5 23.9 95 0.6 NNE 6 7 3 4 1009.6 1009.5 17.8
19/04:00am 24.7 29.7 23.8 95 0.6 NNE 4 7 2 4 1009.3 1009.2 17.8
19/03:30am 24.7 29.1 23.8 95 0.6 N 7 9 4 5 1009.3 1009.2 17.8
19/03:00am 24.8 29.2 23.8 94 0.7 NNE 7 9 4 5 1009.7 1009.6 17.8
19/02:30am 24.8 28.9 23.9 95 0.6 NNE 9 13 5 7 1009.8 1009.7 17.8
19/02:00am 24.9 29.7 24.4 97 0.3 N 7 11 4 6 1010.0 1009.9 17.8
19/01:30am 25.0 29.9 24.3 96 0.5 NNE 6 7 3 4 1010.2 1010.1 17.8
19/01:00am 24.8 29.9 24.1 96 0.5 NE 4 7 2 4 1010.4 1010.3 17.8
19/12:30am 24.6 28.9 23.7 95 0.6 NNE 7 9 4 5 1010.5 1010.4 17.8
19/12:00am 24.5 28.9 23.5 94 0.7 N 6 7 3 4 1010.5 1010.4 17.8
 
Date/Time
EST
Temp
°C
App
Temp
°C
Dew
Point
°C
Rel
Hum
%
Delta-T
°C
Wind Press
QNH
hPa
Press
MSL
hPa
Rain since
9am
mm
Dir  Spd
km/h
Gust
km/h
Spd
kts
Gust
kts
18/11:30pm 24.5 28.9 23.5 94 0.7 N 6 7 3 4 1010.8 1010.7 17.8
18/11:00pm 24.6 30.2 23.6 94 0.7 CALM 0 0 0 0 1011.0 1010.9 17.8
18/10:30pm 24.7 29.2 23.7 94 0.7 E 6 7 3 4 1010.9 1010.8 17.8
18/10:00pm 24.6 30.2 23.6 94 0.7 CALM 0 0 0 0 1010.8 1010.7 17.8
18/09:30pm 24.5 29.0 23.6 95 0.6 NE 6 7 3 4 1010.6 1010.5 17.8
18/09:00pm 24.4 28.6 23.5 95 0.6 NE 7 11 4 6 1010.3 1010.2 17.8
18/08:30pm 24.3 28.5 23.4 95 0.6 N 7 11 4 6 1009.8 1009.7 17.8
18/08:00pm 24.3 28.5 23.4 95 0.6 NNE 7 9 4 5 1009.9 1009.8 17.8
18/07:30pm 24.6 28.9 23.6 94 0.7 WNW 7 9 4 5 1009.7 1009.6 17.8
18/07:00pm 24.3 28.1 23.4 95 0.6 W 9 11 5 6 1009.7 1009.6 17.6
18/06:30pm 24.2 28.1 23.0 93 0.8 WNW 7 9 4 5 1010.4 1010.3 17.2
18/06:00pm 23.8 26.0 22.6 93 0.8 S 15 20 8 11 1010.1 1010.0 16.8
18/05:30pm 24.3 25.8 22.0 87 1.5 SSE 17 24 9 13 1010.0 1009.9 11.6
18/05:00pm 26.8 31.7 25.2 91 1.1 E 9 24 5 13 1008.9 1008.8 9.0
18/04:30pm 26.9 32.3 25.5 92 1.0 ENE 7 11 4 6 1008.3 1008.2 9.0
18/04:00pm 27.0 31.7 25.0 89 1.4 ESE 9 11 5 6 1008.2 1008.1 8.6
18/03:30pm 26.9 31.8 24.7 88 1.5 SE 7 9 4 5 1008.2 1008.1 8.6
18/03:00pm 26.3 30.5 24.7 91 1.1 SE 11 22 6 12 1008.2 1008.1 8.0
18/02:30pm 26.8 28.4 23.9 84 2.0 SSW 22 30 12 16 1008.4 1008.3 0.0
18/02:00pm 31.3 33.2 23.7 64 5.3 WNW 20 28 11 15 1008.7 1008.6 0.0
18/01:30pm 32.8 36.1 25.1 64 5.4 WNW 17 24 9 13 1009.1 1009.0 0.0
18/01:00pm 31.9 35.3 25.2 67 4.7 W 17 22 9 12 1009.9 1009.8 0.0
18/12:30pm 33.2 36.5 23.8 57 6.6 WNW 13 19 7 10 1010.6 1010.5 0.0
18/12:00pm 32.3 34.9 22.7 57 6.6 NW 13 20 7 11 1011.0 1010.9 0.0
18/11:30am 31.8 34.9 23.6 62 5.7 WNW 13 19 7 10 1011.1 1011.0 0.0
18/11:00am 31.0 34.1 23.6 64 5.1 W 13 19 7 10 1011.3 1011.2 0.0
18/10:30am 31.3 35.3 24.4 66 4.8 WNW 11 17 6 9 1011.6 1011.5 0.0
18/10:00am 30.8 35.0 24.7 70 4.3 NW 11 17 6 9 1011.6 1011.5 0.0
18/09:30am 30.1 34.0 24.3 71 4.0 NNW 11 15 6 8 1011.6 1011.5 0.0
18/09:00am 28.9 32.6 22.6 69 4.3 N 7 11 4 6 1011.5 1011.4 0.0
18/08:30am 28.0 31.5 22.9 74 3.5 NNE 9 11 5 6 1011.4 1011.3 0.0
18/08:00am 26.7 30.0 22.5 78 2.8 NNE 9 13 5 7 1011.2 1011.1 0.0
18/07:30am 25.8 29.9 23.3 86 1.7 ENE 7 11 4 6 1010.8 1010.7 0.0
18/07:00am 24.9 29.2 23.3 91 1.1 ENE 6 7 3 4 1010.5 1010.4 0.0
18/06:30am 24.5 28.4 22.9 91 1.1 E 7 9 4 5 1010.3 1010.2 0.0
18/06:00am 24.6 28.6 22.8 90 1.2 ENE 6 9 3 5 1010.0 1009.9 0.0
18/05:30am 24.8 28.9 22.9 89 1.3 ENE 6 7 3 4 1009.7 1009.6 0.0
18/05:00am 24.8 28.8 22.7 88 1.4 NE 6 9 3 5 1009.4 1009.3 0.0
18/04:30am 24.9 30.1 22.8 88 1.4 CALM 0 0 0 0 1009.3 1009.2 0.0
18/04:00am 25.0 28.9 22.9 88 1.4 NNE 7 11 4 6 1008.9 1008.8 0.0
18/03:30am 25.2 29.1 22.9 87 1.6 NE 7 11 4 6 1009.1 1009.0 0.0
18/03:00am 25.4 29.7 23.3 88 1.4 NNE 6 9 3 5 1009.5 1009.4 0.0
18/02:30am 25.5 29.7 23.4 88 1.4 N 7 13 4 7 1009.4 1009.3 0.0
18/02:00am 25.6 29.8 23.5 88 1.4 NE 7 11 4 6 1009.9 1009.8 0.0
18/01:30am 25.7 29.9 23.4 87 1.6 N 7 9 4 5 1009.8 1009.7 0.0
18/01:00am 25.9 30.1 23.4 86 1.7 N 7 9 4 5 1010.1 1010.0 0.0
18/12:30am 26.1 30.2 23.2 84 2.0 NE 7 13 4 7 1010.3 1010.2 0.0
18/12:00am 26.5 30.6 24.0 86 1.7 NNE 9 11 5 6 1010.4 1010.3 0.0
 
Date/Time
EST
Temp
°C
App
Temp
°C
Dew
Point
°C
Rel
Hum
%
Delta-T
°C
Wind Press
QNH
hPa
Press
MSL
hPa
Rain since
9am
mm
Dir  Spd
km/h
Gust
km/h
Spd
kts
Gust
kts
17/11:30pm 26.6 31.0 24.4 88 1.5 NNE 9 13 5 7 1010.8 1010.7 0.0
17/11:00pm 26.6 30.9 24.3 87 1.6 NNE 9 11 5 6 1010.6 1010.5 0.0
17/10:30pm 26.7 31.3 24.7 89 1.4 NE 9 11 5 6 1010.7 1010.6 0.0
17/10:00pm 27.0 32.6 24.3 85 1.9 E 2 6 1 3 1010.4 1010.3 0.0
17/09:30pm 26.8 31.6 24.1 85 1.9 ENE 6 7 3 4 1010.1 1010.0 0.0
17/09:00pm 27.0 31.7 23.9 83 2.1 NE 6 6 3 3 1009.8 1009.7 0.0
17/08:30pm 27.0 31.5 23.7 82 2.3 NNE 6 7 3 4 1009.4 1009.3 0.0
17/08:00pm 27.5 33.3 23.9 81 2.5 CALM 0 6 0 3 1009.1 1009.0 0.0
17/07:30pm 27.6 32.1 23.6 79 2.7 ESE 6 9 3 5 1008.9 1008.8 0.0
17/07:00pm 27.9 32.6 23.3 76 3.2 WSW 4 9 2 5 1008.6 1008.5 0.0
17/06:30pm 28.2 31.1 22.4 71 3.9 SSE 11 15 6 8 1008.3 1008.2 0.0
17/06:00pm 30.9 32.5 22.2 59 5.9 WSW 17 20 9 11 1008.3 1008.2 0.0
17/05:30pm 31.5 33.3 22.5 59 6.1 W 17 24 9 13 1008.2 1008.1 0.0
17/05:00pm 31.9 33.2 22.3 56 6.6 W 19 24 10 13 1007.8 1007.7 0.0
17/04:30pm 32.4 33.5 21.9 54 7.1 W 19 24 10 13 1007.9 1007.8 0.0
17/04:00pm 32.7 34.4 23.1 57 6.6 WNW 19 24 10 13 1007.8 1007.7 0.0
17/03:30pm 32.9 34.6 23.0 56 6.8 WNW 19 26 10 14 1008.3 1008.2 0.0
17/03:00pm 33.3 35.5 23.3 55 6.9 W 17 20 9 11 1008.6 1008.5 0.0
17/02:30pm 33.4 36.5 22.8 53 7.3 W 11 24 6 13 1009.0 1008.9 0.0
17/02:00pm 32.6 35.4 23.0 57 6.6 NW 13 17 7 9 1009.5 1009.4 0.0
17/01:30pm 32.5 35.6 22.9 57 6.6 WNW 11 17 6 9 1010.2 1010.1 0.0
17/01:00pm 33.2 36.9 22.6 53 7.3 NNW 7 13 4 7 1010.7 1010.6 0.0
17/12:30pm 32.4 35.4 21.3 52 7.5 NNE 7 11 4 6 1011.2 1011.1 0.0
17/12:00pm 32.5 36.4 22.9 57 6.6 ESE 7 13 4 7 1011.7 1011.6 0.0
17/11:30am 31.4 34.9 21.8 56 6.5 ENE 6 9 3 5 1012.1 1012.0 0.0
17/11:00am 31.2 34.7 22.2 58 6.1 ENE 7 11 4 6 1012.3 1012.2 0.0
17/10:30am 30.9 34.2 21.9 58 6.1 E 7 13 4 7 1012.6 1012.5 0.0
17/10:00am 30.1 33.3 22.3 63 5.3 NNE 9 13 5 7 1012.9 1012.8 0.0
17/09:30am 29.2 33.4 23.4 71 4.0 ESE 7 11 4 6 1012.9 1012.8 0.0
17/09:00am 28.4 32.3 22.9 72 3.7 NE 7 11 4 6 1012.8 1012.7 0.0
17/08:30am 27.5 31.4 22.9 76 3.1 NNE 7 11 4 6 1012.3 1012.2 0.0
17/08:00am 26.7 30.8 23.2 81 2.4 NNE 7 9 4 5 1012.0 1011.9 0.0
17/07:30am 25.6 29.9 23.3 87 1.6 E 6 9 3 5 1011.6 1011.5 0.0
17/07:00am 24.6 29.5 23.0 91 1.1 ENE 2 7 1 4 1011.2 1011.1 0.0
17/06:30am 24.2 28.5 22.6 91 1.1 E 4 7 2 4 1010.9 1010.8 0.0
17/06:00am 24.2 29.3 22.6 91 1.1 CALM 0 4 0 2 1010.5 1010.4 0.0
17/05:30am 24.4 28.6 22.5 89 1.3 E 4 7 2 4 1010.4 1010.3 0.0
17/05:00am 24.4 29.3 22.3 88 1.4 CALM 0 0 0 0 1010.1 1010.0 0.0
17/04:30am 24.4 28.4 22.1 87 1.5 NNE 4 6 2 3 1009.9 1009.8 0.0
17/04:00am 24.4 28.4 22.1 87 1.5 ENE 4 7 2 4 1009.8 1009.7 0.0
17/03:30am 24.4 27.9 22.1 87 1.5 NNE 7 9 4 5 1009.8 1009.7 0.0
17/03:00am 24.5 28.3 22.8 90 1.1 NNE 7 9 4 5 1010.1 1010.0 0.0
17/02:30am 24.6 28.2 23.0 91 1.1 NE 9 11 5 6 1010.4 1010.3 0.0
17/02:00am 24.7 28.8 22.9 90 1.2 NNE 6 9 3 5 1010.6 1010.5 0.0
17/01:30am 24.8 29.9 22.7 88 1.4 CALM 0 0 0 0 1010.8 1010.7 0.0
17/01:00am 24.9 28.9 22.8 88 1.4 N 6 9 3 5 1011.3 1011.2 0.0
17/12:30am 25.1 28.9 22.8 87 1.6 NE 7 11 4 6 1011.9 1011.8 0.0
17/12:00am 25.5 28.1 22.6 84 2.0 E 13 20 7 11 1012.5 1012.4 0.0
 
Date/Time
EST
Temp
°C
App
Temp
°C
Dew
Point
°C
Rel
Hum
%
Delta-T
°C
Wind Press
QNH
hPa
Press
MSL
hPa
Rain since
9am
mm
Dir  Spd
km/h
Gust
km/h
Spd
kts
Gust
kts
16/11:30pm 25.6 28.8 22.3 82 2.2 NE 9 15 5 8 1012.7 1012.6 0.0
16/11:00pm 26.0 28.9 22.5 81 2.4 NE 11 17 6 9 1012.4 1012.3 0.0
16/10:30pm 26.6 29.7 22.2 77 3.0 NE 9 15 5 8 1012.4 1012.3 0.0
16/10:00pm 27.3 31.8 24.6 85 1.9 NNE 9 11 5 6 1011.7 1011.6 0.0
16/09:30pm 27.8 32.7 24.4 82 2.4 NW 6 7 3 4 1011.2 1011.1 0.0
16/09:00pm 28.2 33.0 24.4 80 2.6 NW 7 11 4 6 1010.9 1010.8 0.0
16/08:30pm 28.2 33.0 24.4 80 2.6 WNW 7 11 4 6 1010.7 1010.6 0.0
16/08:00pm 28.4 32.7 24.2 78 2.9 W 9 13 5 7 1010.3 1010.2 0.0
16/07:30pm 28.9 32.9 23.8 74 3.5 W 9 13 5 7 1010.1 1010.0 0.0
16/07:00pm 29.7 33.1 23.4 69 4.3 W 11 17 6 9 1009.7 1009.6 0.0
16/06:30pm 30.8 33.7 23.2 64 5.2 W 13 20 7 11 1009.2 1009.1 0.0
16/06:00pm 31.6 34.2 24.0 64 5.3 W 17 20 9 11 1008.4 1008.3 0.0
16/05:30pm 32.4 35.8 24.7 64 5.4 W 15 20 8 11 1008.3 1008.2 0.0
16/05:00pm 32.4 35.3 24.4 62 5.6 W 17 20 9 11 1008.4 1008.3 0.0
16/04:30pm 33.1 36.3 24.3 60 6.2 WNW 15 20 8 11 1008.5 1008.4 0.0
16/04:00pm 32.6 37.5 24.6 62 5.6 WNW 7 17 4 9 1008.9 1008.8 0.0
16/03:30pm 34.1 37.8 23.2 53 7.6 SSW 9 13 5 7 1008.8 1008.7 0.0
16/03:00pm 33.7 37.2 22.1 50 7.9 WSW 7 13 4 7 1009.4 1009.3 0.0
16/02:30pm 33.2 37.5 22.6 53 7.3 SSE 4 7 2 4 1010.1 1010.0 0.0
16/02:00pm 32.5 35.4 21.7 53 7.3 NE 9 13 5 7 1010.6 1010.5 0.0
16/01:30pm 33.6 38.2 24.2 58 6.6 N 7 11 4 6 1010.9 1010.8 0.0
16/01:00pm 32.6 36.1 22.1 54 7.2 NNE 7 13 4 7 1011.5 1011.4 0.0
16/12:30pm 32.2 35.7 22.9 58 6.4 NNW 9 15 5 8 1011.9 1011.8 0.0
16/12:00pm 31.6 35.1 22.9 60 6.0 N 9 13 5 7 1012.4 1012.3 0.0
16/11:30am 31.7 35.8 24.0 63 5.4 NE 9 13 5 7 1012.9 1012.8 0.0
16/11:00am 31.1 34.8 23.2 63 5.4 NNE 9 15 5 8 1013.3 1013.2 0.0
16/10:30am 30.6 34.4 23.5 66 4.9 NNE 9 15 5 8 1013.6 1013.5 0.0

Other formats

Comma delimited format used in spreadsheet applications
http://www.bom.gov.au/fwo/IDQ60801/IDQ60801.94268.axf

JavaScript Object Notation format (JSON) in row-major order
http://www.bom.gov.au/fwo/IDQ60801/IDQ60801.94268.json

Data quality

Most of these data are generated automatically and are frequently updated. Quality checks on data are not normally performed. It is possible for incorrect values to appear. Refer to information at About Latest Weather Observations and please check the disclaimer before using these data.